sensor_id;sensor_type;location;lat;lon;timestamp;pressure;altitude;pressure_sealevel;temperature;humidity
11448;BME280;43755;49.736;8.734;2023-05-11T00:01:15;97642.72;;;10.31;100.00
11448;BME280;43755;49.736;8.734;2023-05-11T00:03:18;97649.72;;;10.32;100.00
11448;BME280;43755;49.736;8.734;2023-05-11T00:05:19;97646.44;;;10.27;100.00
11448;BME280;43755;49.736;8.734;2023-05-11T00:07:21;97652.47;;;10.31;100.00
11448;BME280;43755;49.736;8.734;2023-05-11T00:09:22;97648.16;;;10.28;100.00
11448;BME280;43755;49.736;8.734;2023-05-11T00:11:23;97644.81;;;10.24;100.00
11448;BME280;43755;49.736;8.734;2023-05-11T00:13:25;97646.59;;;10.24;100.00
11448;BME280;43755;49.736;8.734;2023-05-11T00:15:27;97642.53;;;10.17;100.00
11448;BME280;43755;49.736;8.734;2023-05-11T00:17:28;97640.75;;;10.16;100.00
11448;BME280;43755;49.736;8.734;2023-05-11T00:19:31;97639.19;;;10.12;100.00
11448;BME280;43755;49.736;8.734;2023-05-11T00:21:32;97645.25;;;10.14;100.00
11448;BME280;43755;49.736;8.734;2023-05-11T00:23:34;97641.13;;;10.08;100.00
11448;BME280;43755;49.736;8.734;2023-05-11T00:25:35;97640.41;;;10.05;100.00
11448;BME280;43755;49.736;8.734;2023-05-11T00:27:38;97637.06;;;10.01;100.00
11448;BME280;43755;49.736;8.734;2023-05-11T00:29:44;97646.69;;;10.02;100.00
11448;BME280;43755;49.736;8.734;2023-05-11T00:31:46;97638.69;;;10.04;100.00
11448;BME280;43755;49.736;8.734;2023-05-11T00:33:47;97636.97;;;10.03;100.00
11448;BME280;43755;49.736;8.734;2023-05-11T00:35:51;97643.19;;;10.02;100.00
11448;BME280;43755;49.736;8.734;2023-05-11T00:37:52;97632.69;;;10.00;100.00
11448;BME280;43755;49.736;8.734;2023-05-11T00:39:53;97632.75;;;9.99;100.00
11448;BME280;43755;49.736;8.734;2023-05-11T00:41:55;97630.34;;;9.94;100.00
11448;BME280;43755;49.736;8.734;2023-05-11T00:43:56;97626.69;;;9.97;100.00
11448;BME280;43755;49.736;8.734;2023-05-11T00:45:57;97627.59;;;9.96;100.00
11448;BME280;43755;49.736;8.734;2023-05-11T00:47:59;97627.97;;;9.88;100.00
11448;BME280;43755;49.736;8.734;2023-05-11T00:50:00;97631.66;;;9.84;100.00
11448;BME280;43755;49.736;8.734;2023-05-11T00:52:04;97621.03;;;9.85;100.00
11448;BME280;43755;49.736;8.734;2023-05-11T00:54:06;97625.56;;;9.83;100.00
11448;BME280;43755;49.736;8.734;2023-05-11T00:56:14;97620.19;;;9.85;100.00
11448;BME280;43755;49.736;8.734;2023-05-11T00:58:15;97622.97;;;9.82;100.00
11448;BME280;43755;49.736;8.734;2023-05-11T01:00:17;97616.09;;;9.78;100.00
11448;BME280;43755;49.736;8.734;2023-05-11T01:02:18;97621.25;;;9.81;100.00
11448;BME280;43755;49.736;8.734;2023-05-11T01:04:20;97620.34;;;9.82;100.00
11448;BME280;43755;49.736;8.734;2023-05-11T01:06:28;97626.38;;;9.84;100.00
11448;BME280;43755;49.736;8.734;2023-05-11T01:08:37;97613.38;;;9.79;100.00
11448;BME280;43755;49.736;8.734;2023-05-11T01:10:41;97624.03;;;9.78;100.00
11448;BME280;43755;49.736;8.734;2023-05-11T01:12:53;97625.69;;;9.80;100.00
11448;BME280;43755;49.736;8.734;2023-05-11T01:15:00;97622.19;;;9.80;100.00
11448;BME280;43755;49.736;8.734;2023-05-11T01:17:06;97627.69;;;9.75;100.00
11448;BME280;43755;49.736;8.734;2023-05-11T01:19:17;97621.47;;;9.76;100.00
11448;BME280;43755;49.736;8.734;2023-05-11T01:21:20;97615.31;;;9.76;100.00
11448;BME280;43755;49.736;8.734;2023-05-11T01:23:50;97618.25;;;9.70;100.00
11448;BME280;43755;49.736;8.734;2023-05-11T01:26:08;97623.66;;;9.67;100.00
11448;BME280;43755;49.736;8.734;2023-05-11T01:28:24;97616.53;;;9.69;100.00
11448;BME280;43755;49.736;8.734;2023-05-11T01:30:35;97620.16;;;9.66;100.00
11448;BME280;43755;49.736;8.734;2023-05-11T01:32:39;97619.59;;;9.60;100.00
11448;BME280;43755;49.736;8.734;2023-05-11T01:34:42;97617.72;;;9.62;100.00
11448;BME280;43755;49.736;8.734;2023-05-11T01:36:50;97611.59;;;9.61;100.00
11448;BME280;43755;49.736;8.734;2023-05-11T01:38:53;97613.19;;;9.65;100.00
11448;BME280;43755;49.736;8.734;2023-05-11T01:40:59;97615.53;;;9.71;100.00
11448;BME280;43755;49.736;8.734;2023-05-11T01:43:03;97618.09;;;9.73;100.00
11448;BME280;43755;49.736;8.734;2023-05-11T01:45:06;97616.53;;;9.69;100.00
11448;BME280;43755;49.736;8.734;2023-05-11T01:47:10;97621.75;;;9.70;100.00
11448;BME280;43755;49.736;8.734;2023-05-11T01:49:15;97620.31;;;9.63;100.00
11448;BME280;43755;49.736;8.734;2023-05-11T01:51:18;97624.50;;;9.67;100.00
11448;BME280;43755;49.736;8.734;2023-05-11T01:53:20;97618.31;;;9.68;100.00
11448;BME280;43755;49.736;8.734;2023-05-11T01:55:24;97623.38;;;9.73;100.00
11448;BME280;43755;49.736;8.734;2023-05-11T01:57:26;97627.31;;;9.64;100.00
11448;BME280;43755;49.736;8.734;2023-05-11T01:59:30;97624.50;;;9.67;100.00
11448;BME280;43755;49.736;8.734;2023-05-11T02:01:33;97629.09;;;9.64;100.00
11448;BME280;43755;49.736;8.734;2023-05-11T02:03:38;97624.44;;;9.69;100.00
11448;BME280;43755;49.736;8.734;2023-05-11T02:05:42;97621.69;;;9.72;100.00
11448;BME280;43755;49.736;8.734;2023-05-11T02:07:45;97624.38;;;9.70;100.00
11448;BME280;43755;49.736;8.734;2023-05-11T02:09:48;97629.66;;;9.70;100.00
11448;BME280;43755;49.736;8.734;2023-05-11T02:11:51;97626.22;;;9.68;100.00
11448;BME280;43755;49.736;8.734;2023-05-11T02:13:54;97624.72;;;9.63;100.00
11448;BME280;43755;49.736;8.734;2023-05-11T02:15:56;97628.28;;;9.62;100.00
11448;BME280;43755;49.736;8.734;2023-05-11T02:17:58;97619.44;;;9.63;100.00
11448;BME280;43755;49.736;8.734;2023-05-11T02:20:03;97629.34;;;9.58;100.00
11448;BME280;43755;49.736;8.734;2023-05-11T02:22:05;97631.09;;;9.59;100.00
11448;BME280;43755;49.736;8.734;2023-05-11T02:24:08;97630.88;;;9.63;100.00
11448;BME280;43755;49.736;8.734;2023-05-11T02:26:11;97627.16;;;9.67;100.00
11448;BME280;43755;49.736;8.734;2023-05-11T02:28:14;97619.44;;;9.63;100.00
11448;BME280;43755;49.736;8.734;2023-05-11T02:30:16;97624.72;;;9.63;100.00
11448;BME280;43755;49.736;8.734;2023-05-11T02:32:20;97617.59;;;9.65;100.00
11448;BME280;43755;49.736;8.734;2023-05-11T02:34:25;97616.09;;;9.59;100.00
11448;BME280;43755;49.736;8.734;2023-05-11T02:36:29;97620.78;;;9.53;100.00
11448;BME280;43755;49.736;8.734;2023-05-11T02:38:34;97622.69;;;9.49;100.00
11448;BME280;43755;49.736;8.734;2023-05-11T02:40:40;97621.97;;;9.45;100.00
11448;BME280;43755;49.736;8.734;2023-05-11T02:42:44;97628.19;;;9.44;100.00
11448;BME280;43755;49.736;8.734;2023-05-11T02:44:52;97620.53;;;9.38;100.00
11448;BME280;43755;49.736;8.734;2023-05-11T02:46:55;97620.84;;;9.31;100.00
11448;BME280;43755;49.736;8.734;2023-05-11T02:49:01;97616.69;;;9.25;100.00
11448;BME280;43755;49.736;8.734;2023-05-11T02:51:06;97613.16;;;9.26;100.00
11448;BME280;43755;49.736;8.734;2023-05-11T02:53:13;97623.91;;;9.22;100.00
11448;BME280;43755;49.736;8.734;2023-05-11T02:55:17;97622.84;;;9.26;100.00
11448;BME280;43755;49.736;8.734;2023-05-11T02:57:21;97620.34;;;9.23;100.00
11448;BME280;43755;49.736;8.734;2023-05-11T02:59:24;97617.50;;;9.27;100.00
11448;BME280;43755;49.736;8.734;2023-05-11T03:01:25;97624.72;;;9.24;100.00
11448;BME280;43755;49.736;8.734;2023-05-11T03:03:27;97615.94;;;9.23;100.00
11448;BME280;43755;49.736;8.734;2023-05-11T03:05:28;97610.56;;;9.25;100.00
11448;BME280;43755;49.736;8.734;2023-05-11T03:07:30;97619.50;;;9.22;100.00
11448;BME280;43755;49.736;8.734;2023-05-11T03:09:33;97616.97;;;9.19;100.00
11448;BME280;43755;49.736;8.734;2023-05-11T03:11:36;97611.63;;;9.21;100.00
11448;BME280;43755;49.736;8.734;2023-05-11T03:13:38;97613.28;;;9.23;100.00
11448;BME280;43755;49.736;8.734;2023-05-11T03:15:40;97610.38;;;9.29;100.00
11448;BME280;43755;49.736;8.734;2023-05-11T03:17:42;97619.94;;;9.32;100.00
11448;BME280;43755;49.736;8.734;2023-05-11T03:19:44;97614.81;;;9.29;100.00
11448;BME280;43755;49.736;8.734;2023-05-11T03:21:46;97616.66;;;9.27;100.00
11448;BME280;43755;49.736;8.734;2023-05-11T03:23:48;97617.44;;;9.29;100.00
11448;BME280;43755;49.736;8.734;2023-05-11T03:25:51;97620.09;;;9.29;100.00
11448;BME280;43755;49.736;8.734;2023-05-11T03:27:53;97612.22;;;9.27;100.00
11448;BME280;43755;49.736;8.734;2023-05-11T03:29:56;97621.06;;;9.26;100.00
11448;BME280;43755;49.736;8.734;2023-05-11T03:31:58;97617.56;;;9.26;100.00
11448;BME280;43755;49.736;8.734;2023-05-11T03:34:00;97619.34;;;9.25;100.00
11448;BME280;43755;49.736;8.734;2023-05-11T03:36:02;97611.56;;;9.22;100.00
11448;BME280;43755;49.736;8.734;2023-05-11T03:38:05;97617.97;;;9.17;100.00
11448;BME280;43755;49.736;8.734;2023-05-11T03:40:08;97616.00;;;9.22;100.00
11448;BME280;43755;49.736;8.734;2023-05-11T03:42:13;97615.13;;;9.21;100.00
11448;BME280;43755;49.736;8.734;2023-05-11T03:44:16;97612.50;;;9.21;100.00
11448;BME280;43755;49.736;8.734;2023-05-11T03:46:20;97610.72;;;9.22;100.00
11448;BME280;43755;49.736;8.734;2023-05-11T03:48:22;97602.75;;;9.23;100.00
11448;BME280;43755;49.736;8.734;2023-05-11T03:50:24;97611.50;;;9.24;100.00
11448;BME280;43755;49.736;8.734;2023-05-11T03:52:28;97612.38;;;9.24;100.00
11448;BME280;43755;49.736;8.734;2023-05-11T03:54:30;97618.69;;;9.20;100.00
11448;BME280;43755;49.736;8.734;2023-05-11T03:56:34;97610.78;;;9.20;100.00
11448;BME280;43755;49.736;8.734;2023-05-11T03:58:39;97615.34;;;9.17;100.00
11448;BME280;43755;49.736;8.734;2023-05-11T04:00:41;97615.06;;;9.23;100.00
11448;BME280;43755;49.736;8.734;2023-05-11T04:02:42;97611.63;;;9.21;100.00
11448;BME280;43755;49.736;8.734;2023-05-11T04:04:44;97614.31;;;9.19;100.00
11448;BME280;43755;49.736;8.734;2023-05-11T04:06:45;97609.06;;;9.19;100.00
11448;BME280;43755;49.736;8.734;2023-05-11T04:08:46;97604.63;;;9.20;100.00
11448;BME280;43755;49.736;8.734;2023-05-11T04:10:48;97605.28;;;9.25;100.00
11448;BME280;43755;49.736;8.734;2023-05-11T04:12:49;97608.78;;;9.25;100.00
11448;BME280;43755;49.736;8.734;2023-05-11T04:14:53;97601.72;;;9.26;100.00
11448;BME280;43755;49.736;8.734;2023-05-11T04:16:54;97609.38;;;9.32;100.00
11448;BME280;43755;49.736;8.734;2023-05-11T04:18:56;97609.53;;;9.29;100.00
11448;BME280;43755;49.736;8.734;2023-05-11T04:20:57;97610.50;;;9.26;100.00
11448;BME280;43755;49.736;8.734;2023-05-11T04:22:58;97614.66;;;9.32;100.00
11448;BME280;43755;49.736;8.734;2023-05-11T04:25:00;97618.03;;;9.35;100.00
11448;BME280;43755;49.736;8.734;2023-05-11T04:27:02;97615.03;;;9.43;100.00
11448;BME280;43755;49.736;8.734;2023-05-11T04:29:03;97610.06;;;9.56;100.00
11448;BME280;43755;49.736;8.734;2023-05-11T04:31:06;97617.94;;;9.57;100.00
11448;BME280;43755;49.736;8.734;2023-05-11T04:33:07;97619.59;;;9.60;100.00
11448;BME280;43755;49.736;8.734;2023-05-11T04:35:09;97611.72;;;9.58;100.00
11448;BME280;43755;49.736;8.734;2023-05-11T04:37:10;97616.09;;;9.59;100.00
11448;BME280;43755;49.736;8.734;2023-05-11T04:39:11;97614.88;;;9.66;100.00
11448;BME280;43755;49.736;8.734;2023-05-11T04:41:13;97619.97;;;9.71;100.00
11448;BME280;43755;49.736;8.734;2023-05-11T04:43:15;97622.72;;;9.68;100.00
11448;BME280;43755;49.736;8.734;2023-05-11T04:45:17;97620.16;;;9.66;100.00
11448;BME280;43755;49.736;8.734;2023-05-11T04:47:19;97615.59;;;9.70;100.00
11448;BME280;43755;49.736;8.734;2023-05-11T04:49:21;97625.44;;;9.66;100.00
11448;BME280;43755;49.736;8.734;2023-05-11T04:51:22;97619.88;;;9.72;100.00
11448;BME280;43755;49.736;8.734;2023-05-11T04:53:24;97624.59;;;9.66;100.00
11448;BME280;43755;49.736;8.734;2023-05-11T04:55:25;97626.22;;;9.68;100.00
11448;BME280;43755;49.736;8.734;2023-05-11T04:57:26;97624.59;;;9.66;100.00
11448;BME280;43755;49.736;8.734;2023-05-11T04:59:28;97621.97;;;9.66;100.00
11448;BME280;43755;49.736;8.734;2023-05-11T05:01:29;97630.38;;;9.74;100.00
11448;BME280;43755;49.736;8.734;2023-05-11T05:03:32;97619.53;;;9.80;100.00
11448;BME280;43755;49.736;8.734;2023-05-11T05:05:33;97620.19;;;9.85;100.00
11448;BME280;43755;49.736;8.734;2023-05-11T05:07:35;97625.75;;;9.79;100.00
11448;BME280;43755;49.736;8.734;2023-05-11T05:09:36;97629.69;;;9.89;100.00
11448;BME280;43755;49.736;8.734;2023-05-11T05:11:38;97628.97;;;9.85;100.00
11448;BME280;43755;49.736;8.734;2023-05-11T05:13:39;97624.47;;;9.88;100.00
11448;BME280;43755;49.736;8.734;2023-05-11T05:15:40;97622.59;;;9.90;100.00
11448;BME280;43755;49.736;8.734;2023-05-11T05:17:42;97629.75;;;9.88;100.00
11448;BME280;43755;49.736;8.734;2023-05-11T05:19:45;97636.75;;;9.89;100.00
11448;BME280;43755;49.736;8.734;2023-05-11T05:21:46;97633.75;;;9.96;100.00
11448;BME280;43755;49.736;8.734;2023-05-11T05:23:47;97628.75;;;9.90;100.00
11448;BME280;43755;49.736;8.734;2023-05-11T05:25:49;97630.47;;;9.91;100.00
11448;BME280;43755;49.736;8.734;2023-05-11T05:27:50;97631.19;;;9.95;100.00
11448;BME280;43755;49.736;8.734;2023-05-11T05:29:52;97631.78;;;10.01;100.00
11448;BME280;43755;49.736;8.734;2023-05-11T05:31:53;97627.75;;;9.93;100.00
11448;BME280;43755;49.736;8.734;2023-05-11T05:33:54;97638.91;;;9.99;100.00
11448;BME280;43755;49.736;8.734;2023-05-11T05:35:57;97633.75;;;9.96;100.00
11448;BME280;43755;49.736;8.734;2023-05-11T05:37:59;97637.19;;;9.98;100.00
11448;BME280;43755;49.736;8.734;2023-05-11T05:40:00;97635.41;;;9.99;100.00
11448;BME280;43755;49.736;8.734;2023-05-11T05:42:02;97637.06;;;10.01;100.00
11448;BME280;43755;49.736;8.734;2023-05-11T05:44:03;97643.28;;;10.00;100.00
11448;BME280;43755;49.736;8.734;2023-05-11T05:46:05;97644.56;;;10.10;100.00
11448;BME280;43755;49.736;8.734;2023-05-11T05:48:06;97647.03;;;10.13;100.00
11448;BME280;43755;49.736;8.734;2023-05-11T05:50:09;97648.91;;;10.11;100.00
11448;BME280;43755;49.736;8.734;2023-05-11T05:52:12;97640.47;;;10.03;100.00
11448;BME280;43755;49.736;8.734;2023-05-11T05:54:13;97648.84;;;10.13;100.00
11448;BME280;43755;49.736;8.734;2023-05-11T05:56:14;97646.03;;;10.17;100.00
11448;BME280;43755;49.736;8.734;2023-05-11T05:58:16;97649.81;;;10.31;100.00
11448;BME280;43755;49.736;8.734;2023-05-11T06:00:18;97649.25;;;10.24;100.00
11448;BME280;43755;49.736;8.734;2023-05-11T06:02:19;97654.94;;;10.34;100.00
11448;BME280;43755;49.736;8.734;2023-05-11T06:04:21;97651.25;;;10.19;100.00
11448;BME280;43755;49.736;8.734;2023-05-11T06:06:22;97656.72;;;10.33;100.00
11448;BME280;43755;49.736;8.734;2023-05-11T06:08:25;97661.44;;;10.45;100.00
11448;BME280;43755;49.736;8.734;2023-05-11T06:10:26;97665.78;;;10.46;100.00
11448;BME280;43755;49.736;8.734;2023-05-11T06:12:28;97661.22;;;10.50;100.00
11448;BME280;43755;49.736;8.734;2023-05-11T06:14:29;97659.84;;;10.60;100.00
11448;BME280;43755;49.736;8.734;2023-05-11T06:16:30;97662.50;;;10.60;100.00
11448;BME280;43755;49.736;8.734;2023-05-11T06:18:32;97661.94;;;10.53;100.00
11448;BME280;43755;49.736;8.734;2023-05-11T06:20:33;97667.06;;;10.56;100.00
11448;BME280;43755;49.736;8.734;2023-05-11T06:22:35;97664.34;;;10.58;100.00
11448;BME280;43755;49.736;8.734;2023-05-11T06:24:37;97673.84;;;10.62;100.00
11448;BME280;43755;49.736;8.734;2023-05-11T06:26:39;97668.44;;;10.65;100.00
11448;BME280;43755;49.736;8.734;2023-05-11T06:28:41;97674.81;;;10.78;100.00
11448;BME280;43755;49.736;8.734;2023-05-11T06:30:42;97673.72;;;10.65;100.00
11448;BME280;43755;49.736;8.734;2023-05-11T06:32:43;97669.00;;;10.72;100.00
11448;BME280;43755;49.736;8.734;2023-05-11T06:34:45;97667.03;;;10.75;100.00
11448;BME280;43755;49.736;8.734;2023-05-11T06:36:46;97666.25;;;10.73;100.00
11448;BME280;43755;49.736;8.734;2023-05-11T06:38:48;97666.19;;;10.75;100.00
11448;BME280;43755;49.736;8.734;2023-05-11T06:40:52;97670.78;;;10.71;100.00
11448;BME280;43755;49.736;8.734;2023-05-11T06:42:53;97672.41;;;10.74;100.00
11448;BME280;43755;49.736;8.734;2023-05-11T06:44:55;97664.53;;;10.72;100.00
11448;BME280;43755;49.736;8.734;2023-05-11T06:46:56;97668.47;;;10.82;100.00
11448;BME280;43755;49.736;8.734;2023-05-11T06:48:58;97662.94;;;10.87;100.00
11448;BME280;43755;49.736;8.734;2023-05-11T06:51:00;97662.88;;;11.05;100.00
11448;BME280;43755;49.736;8.734;2023-05-11T06:53:01;97661.34;;;11.19;100.00
11448;BME280;43755;49.736;8.734;2023-05-11T06:55:03;97659.31;;;11.24;100.00
11448;BME280;43755;49.736;8.734;2023-05-11T06:57:06;97662.28;;;11.35;100.00
11448;BME280;43755;49.736;8.734;2023-05-11T06:59:08;97660.38;;;11.37;100.00
11448;BME280;43755;49.736;8.734;2023-05-11T07:01:10;97666.03;;;11.31;100.00
11448;BME280;43755;49.736;8.734;2023-05-11T07:03:11;97671.63;;;11.25;100.00
11448;BME280;43755;49.736;8.734;2023-05-11T07:05:13;97666.00;;;11.48;100.00
11448;BME280;43755;49.736;8.734;2023-05-11T07:07:14;97668.09;;;11.59;100.00
11448;BME280;43755;49.736;8.734;2023-05-11T07:09:16;97669.03;;;11.58;100.00
11448;BME280;43755;49.736;8.734;2023-05-11T07:11:17;97670.66;;;11.43;100.00
11448;BME280;43755;49.736;8.734;2023-05-11T07:13:20;97674.72;;;11.50;100.00
11448;BME280;43755;49.736;8.734;2023-05-11T07:15:21;97674.41;;;11.39;100.00
11448;BME280;43755;49.736;8.734;2023-05-11T07:17:23;97679.63;;;11.58;100.00
11448;BME280;43755;49.736;8.734;2023-05-11T07:19:25;97680.19;;;11.47;100.00
11448;BME280;43755;49.736;8.734;2023-05-11T07:21:26;97674.47;;;11.55;100.00
11448;BME280;43755;49.736;8.734;2023-05-11T07:23:27;97678.19;;;11.68;100.00
11448;BME280;43755;49.736;8.734;2023-05-11T07:25:29;97681.09;;;11.80;100.00
11448;BME280;43755;49.736;8.734;2023-05-11T07:27:30;97686.72;;;11.74;100.00
11448;BME280;43755;49.736;8.734;2023-05-11T07:29:35;97675.56;;;11.85;100.00
11448;BME280;43755;49.736;8.734;2023-05-11T07:31:36;97690.84;;;11.80;100.00
11448;BME280;43755;49.736;8.734;2023-05-11T07:33:38;97686.59;;;11.77;100.00
11448;BME280;43755;49.736;8.734;2023-05-11T07:35:39;97682.44;;;11.89;100.00
11448;BME280;43755;49.736;8.734;2023-05-11T07:37:41;97685.19;;;12.03;100.00
11448;BME280;43755;49.736;8.734;2023-05-11T07:39:42;97683.06;;;12.10;100.00
11448;BME280;43755;49.736;8.734;2023-05-11T07:41:44;97680.53;;;12.24;100.00
11448;BME280;43755;49.736;8.734;2023-05-11T07:43:46;97685.75;;;12.41;100.00
11448;BME280;43755;49.736;8.734;2023-05-11T07:45:49;97677.47;;;12.63;100.00
11448;BME280;43755;49.736;8.734;2023-05-11T07:47:50;97678.84;;;12.70;100.00
11448;BME280;43755;49.736;8.734;2023-05-11T07:49:51;97675.25;;;12.71;100.00
11448;BME280;43755;49.736;8.734;2023-05-11T07:51:53;97680.63;;;12.69;100.00
11448;BME280;43755;49.736;8.734;2023-05-11T07:53:54;97677.63;;;12.76;100.00
11448;BME280;43755;49.736;8.734;2023-05-11T07:55:56;97682.41;;;12.85;100.00
11448;BME280;43755;49.736;8.734;2023-05-11T07:57:58;97680.50;;;13.02;100.00
11448;BME280;43755;49.736;8.734;2023-05-11T08:00:00;97679.81;;;13.15;100.00
11448;BME280;43755;49.736;8.734;2023-05-11T08:02:03;97677.88;;;13.18;100.00
11448;BME280;43755;49.736;8.734;2023-05-11T08:04:04;97675.16;;;13.34;100.00
11448;BME280;43755;49.736;8.734;2023-05-11T08:06:06;97675.28;;;13.46;100.00
11448;BME280;43755;49.736;8.734;2023-05-11T08:08:08;97678.13;;;13.43;100.00
11448;BME280;43755;49.736;8.734;2023-05-11T08:10:10;97680.88;;;13.42;100.00
11448;BME280;43755;49.736;8.734;2023-05-11T08:12:11;97674.94;;;13.52;100.00
11448;BME280;43755;49.736;8.734;2023-05-11T08:14:13;97674.50;;;13.30;100.00
11448;BME280;43755;49.736;8.734;2023-05-11T08:16:14;97681.81;;;13.41;100.00
11448;BME280;43755;49.736;8.734;2023-05-11T08:18:17;97677.66;;;13.51;100.00
11448;BME280;43755;49.736;8.734;2023-05-11T08:20:19;97679.03;;;13.58;100.00
11448;BME280;43755;49.736;8.734;2023-05-11T08:22:20;97681.97;;;13.68;100.00
11448;BME280;43755;49.736;8.734;2023-05-11T08:24:21;97675.94;;;13.36;100.00
11448;BME280;43755;49.736;8.734;2023-05-11T08:26:23;97674.94;;;13.52;100.00
11448;BME280;43755;49.736;8.734;2023-05-11T08:28:24;97678.19;;;13.72;100.00
11448;BME280;43755;49.736;8.734;2023-05-11T08:30:26;97677.91;;;13.90;100.00
11448;BME280;43755;49.736;8.734;2023-05-11T08:32:27;97679.34;;;14.10;100.00
11448;BME280;43755;49.736;8.734;2023-05-11T08:34:30;97683.34;;;14.31;100.00
11448;BME280;43755;49.736;8.734;2023-05-11T08:36:32;97674.69;;;14.28;100.00
11448;BME280;43755;49.736;8.734;2023-05-11T08:38:34;97680.78;;;14.44;100.00
11448;BME280;43755;49.736;8.734;2023-05-11T08:40:35;97675.53;;;14.57;100.00
11448;BME280;43755;49.736;8.734;2023-05-11T08:42:39;97687.34;;;14.53;100.00
11448;BME280;43755;49.736;8.734;2023-05-11T08:44:42;97685.63;;;14.38;100.00
11448;BME280;43755;49.736;8.734;2023-05-11T08:46:44;97685.72;;;14.36;100.00
11448;BME280;43755;49.736;8.734;2023-05-11T08:48:47;97688.28;;;14.52;100.00
11448;BME280;43755;49.736;8.734;2023-05-11T08:50:50;97694.56;;;14.92;100.00
11448;BME280;43755;49.736;8.734;2023-05-11T08:52:51;97692.59;;;14.95;100.00
11448;BME280;43755;49.736;8.734;2023-05-11T08:54:53;97692.22;;;14.87;100.00
11448;BME280;43755;49.736;8.734;2023-05-11T08:56:55;97690.16;;;14.78;100.00
11448;BME280;43755;49.736;8.734;2023-05-11T08:58:57;97682.56;;;14.99;100.00
11448;BME280;43755;49.736;8.734;2023-05-11T09:00:59;97684.22;;;15.14;100.00
11448;BME280;43755;49.736;8.734;2023-05-11T09:03:00;97682.84;;;15.21;100.00
11448;BME280;43755;49.736;8.734;2023-05-11T09:05:04;97693.38;;;15.10;100.00
11448;BME280;43755;49.736;8.734;2023-05-11T09:07:08;97680.41;;;15.18;100.00
11448;BME280;43755;49.736;8.734;2023-05-11T09:09:10;97688.00;;;15.24;100.00
11448;BME280;43755;49.736;8.734;2023-05-11T09:11:12;97685.47;;;15.35;100.00
11448;BME280;43755;49.736;8.734;2023-05-11T09:13:14;97688.00;;;15.64;100.00
11448;BME280;43755;49.736;8.734;2023-05-11T09:15:16;97694.25;;;15.50;100.00
11448;BME280;43755;49.736;8.734;2023-05-11T09:17:17;97692.44;;;15.50;100.00
11448;BME280;43755;49.736;8.734;2023-05-11T09:19:18;97695.38;;;15.60;100.00
11448;BME280;43755;49.736;8.734;2023-05-11T09:21:23;97694.25;;;15.50;100.00
11448;BME280;43755;49.736;8.734;2023-05-11T09:23:26;97695.69;;;15.29;100.00
11448;BME280;43755;49.736;8.734;2023-05-11T09:25:30;97695.59;;;15.03;100.00
11448;BME280;43755;49.736;8.734;2023-05-11T09:27:34;97686.56;;;15.06;100.00
11448;BME280;43755;49.736;8.734;2023-05-11T09:29:40;97690.84;;;15.21;100.00
11448;BME280;43755;49.736;8.734;2023-05-11T09:31:43;97691.97;;;15.31;100.00
11448;BME280;43755;49.736;8.734;2023-05-11T09:33:44;97686.88;;;15.41;100.00
11448;BME280;43755;49.736;8.734;2023-05-11T09:35:46;97686.00;;;15.40;100.00
11448;BME280;43755;49.736;8.734;2023-05-11T09:38:04;97703.72;;;15.14;100.00
11448;BME280;43755;49.736;8.734;2023-05-11T09:40:09;97696.94;;;14.96;100.00
11448;BME280;43755;49.736;8.734;2023-05-11T09:42:12;97690.31;;;15.16;100.00
11448;BME280;43755;49.736;8.734;2023-05-11T09:44:14;97687.69;;;15.29;100.00
11448;BME280;43755;49.736;8.734;2023-05-11T09:46:20;97692.16;;;15.28;100.00
11448;BME280;43755;49.736;8.734;2023-05-11T09:48:27;97683.66;;;15.36;100.00
11448;BME280;43755;49.736;8.734;2023-05-11T09:50:31;97683.09;;;15.57;100.00
11448;BME280;43755;49.736;8.734;2023-05-11T09:52:33;97693.16;;;15.40;100.00
11448;BME280;43755;49.736;8.734;2023-05-11T09:54:39;97683.00;;;15.32;100.00
11448;BME280;43755;49.736;8.734;2023-05-11T09:56:45;97692.47;;;15.24;100.00
11448;BME280;43755;49.736;8.734;2023-05-11T09:58:49;97688.50;;;15.16;100.00
11448;BME280;43755;49.736;8.734;2023-05-11T10:00:52;97689.13;;;15.07;100.00
11448;BME280;43755;49.736;8.734;2023-05-11T10:03:01;97694.09;;;14.99;100.00
11448;BME280;43755;49.736;8.734;2023-05-11T10:05:11;97697.94;;;15.08;100.00
11448;BME280;43755;49.736;8.734;2023-05-11T10:07:22;97697.31;;;15.04;100.00
11448;BME280;43755;49.736;8.734;2023-05-11T10:09:25;97694.13;;;14.85;100.00
11448;BME280;43755;49.736;8.734;2023-05-11T10:11:26;97696.44;;;14.63;100.00
11448;BME280;43755;49.736;8.734;2023-05-11T10:13:31;97698.41;;;14.88;100.00
11448;BME280;43755;49.736;8.734;2023-05-11T10:15:33;97697.06;;;14.95;100.00
11448;BME280;43755;49.736;8.734;2023-05-11T10:17:36;97693.84;;;14.90;100.00
11448;BME280;43755;49.736;8.734;2023-05-11T10:19:37;97691.56;;;14.84;100.00
11448;BME280;43755;49.736;8.734;2023-05-11T10:21:39;97695.88;;;14.72;100.00
11448;BME280;43755;49.736;8.734;2023-05-11T10:23:41;97693.16;;;14.59;100.00
11448;BME280;43755;49.736;8.734;2023-05-11T10:25:43;97695.03;;;14.57;100.00
11448;BME280;43755;49.736;8.734;2023-05-11T10:27:46;97688.63;;;14.74;100.00
11448;BME280;43755;49.736;8.734;2023-05-11T10:29:49;97693.69;;;14.64;100.00
11448;BME280;43755;49.736;8.734;2023-05-11T10:31:51;97689.06;;;14.54;100.00
11448;BME280;43755;49.736;8.734;2023-05-11T10:33:53;97684.88;;;14.35;100.00
11448;BME280;43755;49.736;8.734;2023-05-11T10:35:56;97688.78;;;14.30;100.00
11448;BME280;43755;49.736;8.734;2023-05-11T10:37:59;97681.81;;;14.27;100.00
11448;BME280;43755;49.736;8.734;2023-05-11T10:40:01;97684.41;;;14.29;100.00
11448;BME280;43755;49.736;8.734;2023-05-11T10:42:16;97676.97;;;14.20;100.00
11448;BME280;43755;49.736;8.734;2023-05-11T10:44:34;97685.72;;;14.64;100.00
11448;BME280;43755;49.736;8.734;2023-05-11T10:47:01;97680.91;;;14.84;100.00